createdAt,value
2019-02-25T00:01:44.126Z,63.86
2019-02-25T00:04:15.420Z,63.29
2019-02-25T00:06:46.796Z,63.13
2019-02-25T00:09:18.267Z,62.92
2019-02-25T00:11:49.571Z,63.80
2019-02-25T00:14:20.872Z,64.06
2019-02-25T00:16:52.092Z,62.66
2019-02-25T00:19:23.448Z,60.17
2019-02-25T00:21:54.777Z,60.25
2019-02-25T00:24:26.120Z,60.89
2019-02-25T00:26:57.412Z,61.14
2019-02-25T00:29:28.840Z,61.12
2019-02-25T00:32:00.162Z,61.25
2019-02-25T00:34:31.516Z,61.58
2019-02-25T00:37:02.815Z,61.72
2019-02-25T00:39:34.207Z,62.13
2019-02-25T00:42:05.576Z,62.43
2019-02-25T00:44:36.915Z,62.72
2019-02-25T00:47:08.164Z,64.01
2019-02-25T00:49:39.453Z,62.70
2019-02-25T00:52:10.738Z,62.84
2019-02-25T00:54:42.028Z,63.25
2019-02-25T00:57:13.363Z,63.26
2019-02-25T00:59:45.117Z,63.15
2019-02-25T01:02:16.466Z,63.23
2019-02-25T01:04:47.714Z,63.49
2019-02-25T01:07:19.100Z,63.46
2019-02-25T01:09:50.365Z,64.12
2019-02-25T01:12:21.764Z,64.89
2019-02-25T01:14:53.020Z,64.75
2019-02-25T01:17:24.256Z,64.63
2019-02-25T01:19:55.507Z,65.47
2019-02-25T01:22:26.853Z,65.47
2019-02-25T01:24:58.096Z,65.58
2019-02-25T01:27:29.340Z,65.39
2019-02-25T01:30:00.614Z,65.13
2019-02-25T01:32:31.962Z,65.03
2019-02-25T01:35:03.241Z,64.81
2019-02-25T01:37:34.565Z,64.81
2019-02-25T01:40:06.340Z,65.01
2019-02-25T01:42:37.615Z,64.86
2019-02-25T01:45:10.890Z,64.77
2019-02-25T01:47:42.293Z,64.93
2019-02-25T01:50:13.934Z,65.41
2019-02-25T01:52:45.232Z,65.62
2019-02-25T01:55:16.685Z,65.74
2019-02-25T01:57:50.765Z,66.15
2019-02-25T02:00:22.209Z,66.44
2019-02-25T02:02:53.495Z,66.65
2019-02-25T02:05:24.720Z,66.54
2019-02-25T02:07:56.005Z,66.62
2019-02-25T02:10:27.264Z,66.83
2019-02-25T02:12:58.590Z,67.13
2019-02-25T02:15:29.855Z,66.18
2019-02-25T02:18:01.264Z,64.54
2019-02-25T02:20:32.558Z,65.77
2019-02-25T02:23:03.922Z,64.96
2019-02-25T02:25:35.289Z,64.32
2019-02-25T02:28:06.587Z,63.47
2019-02-25T02:30:37.880Z,63.08
2019-02-25T02:33:09.209Z,61.67
2019-02-25T02:35:40.551Z,62.04
2019-02-25T02:38:12.372Z,60.93
2019-02-25T02:40:43.646Z,59.22
2019-02-25T02:43:14.928Z,60.10
2019-02-25T02:45:58.357Z,60.59
2019-02-25T02:49:02.522Z,59.56
2019-02-25T02:51:33.957Z,60.14
2019-02-25T02:54:05.187Z,61.45
2019-02-25T02:56:36.512Z,61.89
2019-02-25T02:59:07.825Z,62.67
2019-02-25T03:01:39.123Z,63.20
2019-02-25T03:04:10.533Z,63.67
2019-02-25T03:06:41.856Z,63.93
2019-02-25T03:09:13.400Z,64.21
2019-02-25T03:11:44.718Z,64.85
2019-02-25T03:14:16.238Z,64.99
2019-02-25T03:16:47.909Z,65.08
2019-02-25T03:19:19.204Z,65.26
2019-02-25T03:21:50.659Z,65.84
2019-02-25T03:24:22.093Z,65.78
2019-02-25T03:26:53.423Z,66.19
2019-02-25T03:29:24.972Z,66.32
2019-02-25T03:31:56.420Z,66.25
2019-02-25T03:34:28.195Z,66.50
2019-02-25T03:36:59.777Z,66.96
2019-02-25T03:39:31.198Z,67.04
2019-02-25T03:42:02.664Z,67.07
2019-02-25T03:44:34.121Z,67.09
2019-02-25T03:47:05.518Z,65.85
2019-02-25T03:49:36.890Z,65.81
2019-02-25T03:52:08.359Z,65.95
2019-02-25T03:54:40.155Z,65.28
2019-02-25T03:57:11.734Z,64.70
2019-02-25T03:59:43.355Z,65.06
2019-02-25T04:02:14.811Z,65.87
2019-02-25T04:04:47.773Z,66.08
2019-02-25T04:07:19.389Z,65.86
2019-02-25T04:09:50.721Z,65.96
2019-02-25T04:12:22.342Z,65.66
2019-02-25T04:14:53.786Z,66.19
2019-02-25T04:17:25.266Z,66.55
2019-02-25T04:19:56.700Z,67.10
2019-02-25T04:22:31.295Z,67.26
2019-02-25T04:25:02.853Z,67.45
2019-02-25T04:27:34.118Z,67.46
2019-02-25T04:30:06.213Z,67.43
2019-02-25T04:32:37.717Z,67.47
2019-02-25T04:35:11.341Z,67.70
2019-02-25T04:37:42.926Z,68.14
2019-02-25T04:40:15.067Z,68.21
2019-02-25T04:42:49.580Z,66.82
2019-02-25T04:45:21.222Z,67.02
2019-02-25T04:47:52.781Z,66.69
2019-02-25T04:50:24.587Z,66.99
2019-02-25T04:52:56.087Z,67.42
2019-02-25T04:55:27.516Z,67.75
2019-02-25T04:57:59.015Z,68.17
2019-02-25T05:00:30.440Z,68.27
2019-02-25T05:03:01.902Z,68.43
2019-02-25T05:05:33.382Z,68.38
2019-02-25T05:08:04.762Z,68.47
2019-02-25T05:10:36.435Z,68.81
2019-02-25T05:13:08.318Z,68.92
2019-02-25T05:15:39.842Z,68.89
2019-02-25T05:18:11.471Z,68.74
2019-02-25T05:20:43.046Z,68.52
2019-02-25T05:23:14.499Z,68.79
2019-02-25T05:25:45.883Z,68.79
2019-02-25T05:28:17.322Z,68.75
2019-02-25T05:30:48.750Z,69.18
2019-02-25T05:33:20.078Z,69.43
2019-02-25T05:35:51.478Z,69.57
2019-02-25T05:38:22.877Z,70.00
2019-02-25T05:40:54.136Z,70.33
2019-02-25T05:43:25.448Z,70.48
2019-02-25T05:45:56.823Z,70.78
2019-02-25T05:48:28.102Z,70.99
2019-02-25T05:50:59.412Z,71.22
2019-02-25T05:53:30.794Z,70.12
2019-02-25T05:56:02.148Z,69.84
2019-02-25T05:58:33.524Z,69.01
2019-02-25T06:01:07.734Z,69.47
2019-02-25T06:03:39.452Z,69.80
2019-02-25T06:06:10.699Z,69.80
2019-02-25T06:08:41.975Z,69.88
2019-02-25T06:11:13.241Z,70.16
2019-02-25T06:13:44.561Z,70.04
2019-02-25T06:16:15.813Z,70.27
2019-02-25T06:18:47.115Z,70.35
2019-02-25T06:21:18.451Z,70.72
2019-02-25T06:23:49.861Z,70.94
2019-02-25T06:26:21.112Z,70.71
2019-02-25T06:28:52.372Z,70.98
2019-02-25T06:31:23.635Z,71.05
2019-02-25T06:33:54.923Z,70.86
2019-02-25T06:36:26.258Z,70.85
2019-02-25T06:38:57.566Z,71.16
2019-02-25T06:41:28.908Z,71.76
2019-02-25T06:44:00.201Z,71.93
2019-02-25T06:46:31.549Z,71.86
2019-02-25T06:49:02.734Z,71.66
2019-02-25T06:51:34.091Z,71.47
2019-02-25T06:54:05.383Z,71.25
2019-02-25T06:56:36.672Z,71.32
2019-02-25T06:59:08.003Z,71.27
2019-02-25T07:01:39.313Z,71.03
2019-02-25T07:04:32.121Z,71.14
2019-02-25T07:07:12.911Z,71.49
2019-02-25T07:09:58.209Z,69.85
2019-02-25T07:12:36.924Z,69.89
2019-02-25T07:15:34.215Z,69.31
2019-02-25T07:18:12.980Z,68.45
2019-02-25T07:21:11.939Z,68.15
2019-02-25T07:24:07.844Z,69.78
2019-02-25T07:26:51.157Z,60.73
2019-02-25T07:29:41.166Z,54.95
2019-02-25T07:32:30.305Z,49.29
2019-02-25T07:35:19.633Z,46.02
2019-02-25T07:38:15.784Z,44.63
2019-02-25T07:41:01.554Z,44.41
2019-02-25T07:43:51.596Z,43.70
2019-02-25T07:46:39.024Z,43.59
2019-02-25T07:49:23.242Z,44.38
2019-02-25T07:52:21.633Z,43.30
2019-02-25T07:55:03.278Z,41.43
2019-02-25T07:57:43.794Z,39.37
2019-02-25T08:00:38.022Z,38.67
2019-02-25T08:03:19.132Z,37.42
2019-02-25T08:06:00.578Z,36.52
2019-02-25T08:08:42.063Z,35.21
2019-02-25T08:11:24.186Z,35.15
2019-02-25T08:14:05.211Z,34.11
2019-02-25T08:17:10.759Z,33.36
2019-02-25T08:19:51.206Z,31.87
2019-02-25T08:22:36.391Z,32.66
2019-02-25T08:25:26.470Z,32.97
2019-02-25T08:28:10.100Z,32.37
2019-02-25T08:31:06.447Z,32.97
2019-02-25T08:34:18.651Z,32.41
2019-02-25T08:37:29.278Z,32.02
2019-02-25T08:40:18.291Z,30.73
2019-02-25T08:42:53.170Z,30.57
2019-02-25T08:45:32.207Z,29.16
2019-02-25T08:48:25.278Z,29.93
2019-02-25T08:50:56.659Z,28.56
2019-02-25T08:53:29.860Z,26.46
2019-02-25T08:56:01.008Z,27.21
2019-02-25T08:58:32.253Z,27.17
2019-02-25T09:01:03.634Z,27.63
2019-02-25T09:03:34.829Z,28.58
2019-02-25T09:06:06.158Z,29.11
2019-02-25T09:08:37.365Z,29.68
2019-02-25T09:11:14.104Z,29.82
2019-02-25T09:13:41.716Z,29.53
2019-02-25T09:16:13.029Z,28.89
2019-02-25T09:18:44.292Z,28.67
2019-02-25T09:21:15.553Z,28.68
2019-02-25T09:23:46.743Z,27.42
2019-02-25T09:26:18.072Z,28.99
2019-02-25T09:28:49.368Z,27.20
2019-02-25T09:31:20.769Z,27.12
2019-02-25T09:34:01.442Z,27.59
2019-02-25T09:36:32.566Z,26.04
2019-02-25T09:39:04.566Z,26.38
2019-02-25T09:41:35.849Z,26.03
2019-02-25T09:44:07.884Z,25.66
2019-02-25T09:46:39.091Z,26.70
2019-02-25T09:49:10.523Z,26.02
2019-02-25T09:51:41.829Z,26.10
2019-02-25T09:54:13.234Z,26.13
2019-02-25T09:56:44.585Z,26.04
2019-02-25T09:59:15.916Z,27.05
2019-02-25T10:01:47.475Z,28.48
2019-02-25T10:04:19.794Z,27.99
2019-02-25T10:06:51.055Z,29.09
2019-02-25T10:09:29.599Z,27.88
2019-02-25T10:11:55.444Z,28.55
2019-02-25T10:14:26.758Z,28.77
2019-02-25T10:16:58.141Z,29.95
2019-02-25T10:19:29.392Z,29.26
2019-02-25T10:22:00.801Z,29.33
2019-02-25T10:24:32.077Z,30.32
2019-02-25T10:27:04.341Z,29.41
2019-02-25T10:29:35.623Z,29.09
2019-02-25T10:32:07.037Z,28.93
2019-02-25T10:34:38.368Z,29.24
2019-02-25T10:37:11.130Z,28.04
2019-02-25T10:39:43.350Z,28.55
2019-02-25T10:42:15.580Z,29.10
2019-02-25T10:44:46.946Z,29.05
2019-02-25T10:47:19.858Z,29.41
2019-02-25T10:49:51.333Z,29.18
2019-02-25T10:52:22.610Z,29.41
2019-02-25T10:54:54.493Z,29.71
2019-02-25T10:57:29.199Z,28.46
2019-02-25T11:00:00.318Z,28.49
2019-02-25T11:02:31.657Z,28.86
2019-02-25T11:05:02.914Z,29.78
2019-02-25T11:07:34.915Z,30.06
2019-02-25T11:10:32.796Z,30.37
2019-02-25T11:13:04.382Z,30.45
2019-02-25T11:15:37.515Z,30.55
2019-02-25T11:18:10.076Z,29.49
2019-02-25T11:20:41.316Z,28.78
2019-02-25T11:23:14.711Z,28.43
2019-02-25T11:25:45.578Z,28.45
2019-02-25T11:28:25.439Z,28.80
2019-02-25T11:30:51.570Z,29.47
2019-02-25T11:33:25.122Z,28.44
2019-02-25T11:35:55.923Z,28.49
2019-02-25T11:38:28.686Z,29.68
2019-02-25T11:41:01.852Z,30.17
2019-02-25T11:43:33.028Z,29.60
2019-02-25T11:46:04.788Z,29.09
2019-02-25T11:48:35.970Z,28.67
2019-02-25T11:51:07.234Z,29.31
2019-02-25T11:53:38.497Z,29.31
2019-02-25T11:56:09.779Z,29.47
2019-02-25T11:58:41.027Z,29.64
2019-02-25T12:01:12.302Z,29.17
2019-02-25T12:03:43.604Z,29.13
2019-02-25T12:06:14.921Z,29.34
2019-02-25T12:08:46.239Z,28.46
2019-02-25T12:11:17.545Z,29.07
2019-02-25T12:13:48.985Z,29.54
2019-02-25T12:16:21.772Z,29.09
2019-02-25T12:18:53.885Z,29.74
2019-02-25T12:21:26.986Z,30.01
2019-02-25T12:23:58.328Z,30.38
2019-02-25T12:26:29.617Z,30.71
2019-02-25T12:29:08.485Z,31.16
2019-02-25T12:31:34.352Z,31.91
2019-02-25T12:34:05.765Z,31.54
2019-02-25T12:36:37.110Z,30.38
2019-02-25T12:39:10.321Z,30.03
2019-02-25T12:41:41.649Z,29.96
2019-02-25T12:44:12.950Z,30.50
2019-02-25T12:46:44.265Z,30.10
2019-02-25T12:49:15.590Z,31.00
2019-02-25T12:51:46.950Z,30.33
2019-02-25T12:54:18.134Z,29.97
2019-02-25T12:56:49.464Z,30.14
2019-02-25T12:59:20.753Z,30.67
2019-02-25T13:01:52.094Z,30.45
2019-02-25T13:04:23.339Z,31.38
2019-02-25T13:06:54.634Z,30.21
2019-02-25T13:09:25.936Z,30.77
2019-02-25T13:11:57.269Z,31.05
2019-02-25T13:14:31.017Z,31.16
2019-02-25T13:17:04.137Z,31.64
2019-02-25T13:19:35.297Z,31.11
2019-02-25T13:22:06.792Z,31.10
2019-02-25T13:24:39.539Z,31.90
2019-02-25T13:27:11.849Z,31.58
2019-02-25T13:29:43.982Z,31.04
2019-02-25T13:32:15.283Z,31.26
2019-02-25T13:34:46.821Z,32.92
2019-02-25T13:37:20.763Z,32.25
2019-02-25T13:39:52.095Z,31.82
2019-02-25T13:42:23.376Z,32.74
2019-02-25T13:44:54.882Z,32.25
2019-02-25T13:47:26.189Z,31.79
2019-02-25T13:49:57.811Z,31.97
2019-02-25T13:52:29.156Z,31.20
2019-02-25T13:55:00.524Z,31.87
2019-02-25T13:57:31.942Z,30.85
2019-02-25T14:00:03.518Z,31.07
2019-02-25T14:02:34.806Z,32.03
2019-02-25T14:05:06.342Z,31.25
2019-02-25T14:07:38.270Z,31.21
2019-02-25T14:10:11.378Z,32.01
2019-02-25T14:12:43.028Z,31.59
2019-02-25T14:15:16.023Z,31.19
2019-02-25T14:17:47.344Z,31.43
2019-02-25T14:20:20.001Z,31.35
2019-02-25T14:22:51.363Z,30.96
2019-02-25T14:25:24.544Z,31.16
2019-02-25T14:27:55.874Z,30.95
2019-02-25T14:30:33.492Z,32.26
2019-02-25T14:33:03.912Z,31.37
2019-02-25T14:35:35.418Z,30.93
2019-02-25T14:38:10.183Z,31.14
2019-02-25T14:40:43.861Z,32.29
2019-02-25T14:43:15.670Z,32.58
2019-02-25T14:45:47.103Z,31.35
2019-02-25T14:48:20.959Z,31.15
2019-02-25T14:50:52.430Z,31.31
2019-02-25T14:53:23.732Z,31.45
2019-02-25T14:55:56.111Z,30.61
2019-02-25T14:58:31.318Z,30.56
2019-02-25T15:01:01.670Z,30.58
2019-02-25T15:03:33.144Z,30.44
2019-02-25T15:06:04.602Z,30.69
2019-02-25T15:08:35.919Z,30.87
2019-02-25T15:11:09.259Z,30.36
2019-02-25T15:13:40.348Z,30.16
2019-02-25T15:16:11.712Z,30.58
2019-02-25T15:18:42.991Z,30.58
2019-02-25T15:21:15.981Z,30.81
2019-02-25T15:23:47.502Z,30.72
2019-02-25T15:26:19.890Z,30.66
2019-02-25T15:28:55.943Z,30.69
2019-02-25T15:31:24.862Z,30.52
2019-02-25T15:33:56.434Z,31.22
2019-02-25T15:36:29.049Z,31.68
2019-02-25T15:39:00.409Z,30.76
2019-02-25T15:41:31.716Z,30.81
2019-02-25T15:44:04.804Z,30.98
2019-02-25T15:46:36.294Z,31.59
2019-02-25T15:49:07.647Z,31.08
2019-02-25T15:51:41.109Z,31.09
2019-02-25T15:54:12.014Z,31.92
2019-02-25T15:56:43.546Z,32.10
2019-02-25T15:59:14.925Z,30.42
2019-02-25T16:01:46.615Z,31.69
2019-02-25T16:04:17.846Z,30.49
2019-02-25T16:06:51.283Z,31.18
2019-02-25T16:09:25.598Z,31.10
2019-02-25T16:11:58.873Z,31.01
2019-02-25T16:14:30.367Z,30.70
2019-02-25T16:17:01.812Z,31.23
2019-02-25T16:19:41.300Z,31.13
2019-02-25T16:22:07.952Z,31.46
2019-02-25T16:24:39.350Z,31.10
2019-02-25T16:27:11.074Z,31.21
2019-02-25T16:29:42.428Z,31.96
2019-02-25T16:32:15.273Z,31.62
2019-02-25T16:34:46.897Z,31.82
2019-02-25T16:37:19.802Z,32.48
2019-02-25T16:39:51.395Z,32.23
2019-02-25T16:42:28.092Z,32.53
2019-02-25T16:45:01.147Z,33.16
2019-02-25T16:47:34.833Z,33.14
2019-02-25T16:50:05.640Z,34.10
2019-02-25T16:52:40.710Z,34.47
2019-02-25T16:55:10.773Z,34.18
2019-02-25T16:57:43.456Z,34.10
2019-02-25T17:00:19.305Z,34.62
2019-02-25T17:02:51.067Z,34.36
2019-02-25T17:05:22.803Z,34.52
2019-02-25T17:07:55.951Z,34.49
2019-02-25T17:10:29.684Z,34.56
2019-02-25T17:13:00.889Z,34.58
2019-02-25T17:15:32.128Z,34.78
2019-02-25T17:18:03.512Z,34.73
2019-02-25T17:20:37.129Z,34.98
2019-02-25T17:23:10.067Z,35.28
2019-02-25T17:25:43.623Z,35.68
2019-02-25T17:28:17.549Z,35.85
2019-02-25T17:30:49.599Z,36.15
2019-02-25T17:33:21.076Z,36.32
2019-02-25T17:35:55.504Z,37.06
2019-02-25T17:38:28.543Z,37.38
2019-02-25T17:41:01.260Z,37.51
2019-02-25T17:43:34.267Z,38.54
2019-02-25T17:46:07.442Z,39.81
2019-02-25T17:48:39.974Z,40.70
2019-02-25T17:51:11.264Z,41.27
2019-02-25T17:53:43.974Z,42.47
2019-02-25T17:56:15.668Z,43.38
2019-02-25T17:58:47.070Z,43.71
2019-02-25T18:01:19.679Z,44.26
2019-02-25T18:03:51.602Z,44.75
2019-02-25T18:06:29.593Z,45.30
2019-02-25T18:08:57.698Z,45.68
2019-02-25T18:11:29.558Z,45.07
2019-02-25T18:14:01.495Z,46.00
2019-02-25T18:16:33.283Z,46.64
2019-02-25T18:19:05.775Z,46.89
2019-02-25T18:21:37.133Z,47.43
2019-02-25T18:24:10.041Z,48.18
2019-02-25T18:26:44.440Z,48.64
2019-02-25T18:29:16.711Z,48.24
2019-02-25T18:31:48.854Z,47.31
2019-02-25T18:34:20.450Z,46.16
2019-02-25T18:36:53.722Z,46.67
2019-02-25T18:39:26.920Z,47.65
2019-02-25T18:41:58.189Z,47.96
2019-02-25T18:44:29.741Z,49.34
2019-02-25T18:47:01.245Z,49.31
2019-02-25T18:49:34.766Z,49.71
2019-02-25T18:52:06.423Z,50.21
2019-02-25T18:54:39.104Z,51.49
2019-02-25T18:57:11.054Z,49.91
2019-02-25T18:59:42.296Z,50.63
2019-02-25T19:02:14.545Z,51.89
2019-02-25T19:04:46.975Z,52.43
2019-02-25T19:07:18.368Z,51.97
2019-02-25T19:09:58.179Z,51.38
2019-02-25T19:12:29.835Z,51.36
2019-02-25T19:15:03.112Z,52.31
2019-02-25T19:17:34.284Z,52.86
2019-02-25T19:20:06.237Z,53.69
2019-02-25T19:22:39.740Z,54.24
2019-02-25T19:25:17.659Z,54.27
2019-02-25T19:27:50.050Z,55.11
2019-02-25T19:30:22.294Z,55.66
2019-02-25T19:32:56.624Z,55.72
2019-02-25T19:35:30.472Z,56.32
2019-02-25T19:38:05.105Z,55.22
2019-02-25T19:40:38.435Z,55.30
2019-02-25T19:43:08.153Z,55.88
2019-02-25T19:45:40.966Z,54.35
2019-02-25T19:48:12.667Z,54.37
2019-02-25T19:50:50.935Z,54.87
2019-02-25T19:53:20.032Z,54.33
2019-02-25T19:55:51.767Z,55.15
2019-02-25T19:58:24.204Z,55.59
2019-02-25T20:01:00.853Z,56.01
2019-02-25T20:03:30.981Z,55.44
2019-02-25T20:06:03.861Z,56.29
2019-02-25T20:08:35.421Z,56.75
2019-02-25T20:11:09.257Z,57.52
2019-02-25T20:13:40.559Z,57.88
2019-02-25T20:16:15.834Z,58.28
2019-02-25T20:18:45.953Z,57.79
2019-02-25T20:21:17.281Z,58.43
2019-02-25T20:23:50.085Z,58.22
2019-02-25T20:26:22.346Z,56.71
2019-02-25T20:28:54.728Z,56.44
2019-02-25T20:31:28.334Z,56.25
2019-02-25T20:34:01.494Z,57.94
2019-02-25T20:36:32.744Z,58.53
2019-02-25T20:39:05.097Z,58.82
2019-02-25T20:41:36.455Z,59.21
2019-02-25T20:44:07.784Z,59.46
2019-02-25T20:46:39.237Z,59.88
2019-02-25T20:49:14.213Z,60.12
2019-02-25T20:51:43.674Z,60.21
2019-02-25T20:54:17.976Z,60.60
2019-02-25T20:56:49.118Z,60.87
2019-02-25T20:59:21.248Z,61.33
2019-02-25T21:01:54.013Z,61.50
2019-02-25T21:04:27.891Z,62.00
2019-02-25T21:06:59.199Z,62.03
2019-02-25T21:09:31.623Z,61.06
2019-02-25T21:12:03.587Z,61.50
2019-02-25T21:14:35.667Z,61.76
2019-02-25T21:17:07.926Z,61.95
2019-02-25T21:19:40.027Z,60.93
2019-02-25T21:22:12.431Z,58.84
2019-02-25T21:24:43.715Z,59.46
2019-02-25T21:27:16.874Z,60.61
2019-02-25T21:29:48.275Z,61.33
2019-02-25T21:32:20.359Z,62.09
2019-02-25T21:34:56.032Z,62.47
2019-02-25T21:37:29.332Z,62.25
2019-02-25T21:40:02.836Z,61.74
2019-02-25T21:42:33.843Z,62.03
2019-02-25T21:45:05.760Z,61.06
2019-02-25T21:47:37.257Z,59.96
2019-02-25T21:50:11.954Z,60.78
2019-02-25T21:52:43.980Z,60.15
2019-02-25T21:55:20.099Z,59.34
2019-02-25T21:57:54.400Z,60.08
2019-02-25T22:00:26.817Z,60.10
2019-02-25T22:02:58.001Z,59.54
2019-02-25T22:05:29.402Z,59.13
2019-02-25T22:08:02.298Z,59.89
2019-02-25T22:10:36.312Z,60.81
2019-02-25T22:13:08.657Z,61.38
2019-02-25T22:15:42.904Z,62.23
2019-02-25T22:18:14.272Z,62.64
2019-02-25T22:20:47.657Z,63.09
2019-02-25T22:23:22.131Z,63.57
2019-02-25T22:25:54.323Z,63.48
2019-02-25T22:28:25.578Z,63.53
2019-02-25T22:30:56.873Z,62.30
2019-02-25T22:33:30.299Z,62.51
2019-02-25T22:36:01.192Z,63.27
2019-02-25T22:38:32.489Z,63.43
2019-02-25T22:41:03.798Z,63.07
2019-02-25T22:43:36.732Z,62.21
2019-02-25T22:46:11.132Z,62.72
2019-02-25T22:48:43.314Z,63.94
2019-02-25T22:51:13.707Z,64.12
2019-02-25T22:53:45.033Z,64.64
2019-02-25T22:56:18.137Z,65.27
2019-02-25T22:58:49.249Z,65.75
2019-02-25T23:01:20.623Z,66.22
2019-02-25T23:03:54.596Z,66.71
2019-02-25T23:06:25.432Z,65.76
2019-02-25T23:08:57.135Z,65.30
2019-02-25T23:11:28.295Z,65.85
2019-02-25T23:13:59.672Z,65.70
2019-02-25T23:16:39.334Z,65.96
2019-02-25T23:19:13.674Z,66.35
2019-02-25T23:21:46.409Z,66.93
2019-02-25T23:24:17.659Z,67.06
2019-02-25T23:26:50.662Z,67.36
2019-02-25T23:29:25.674Z,67.56
2019-02-25T23:31:54.633Z,67.61
2019-02-25T23:34:25.845Z,67.92
2019-02-25T23:36:57.127Z,68.31
2019-02-25T23:39:30.272Z,68.51
2019-02-25T23:42:04.678Z,68.66
2019-02-25T23:44:34.204Z,69.05
2019-02-25T23:47:07.156Z,69.62
2019-02-25T23:49:39.069Z,69.60
2019-02-25T23:52:11.230Z,70.19
2019-02-25T23:54:45.266Z,69.98
2019-02-25T23:57:17.269Z,70.33
2019-02-25T23:59:48.909Z,70.18
